Latest Weather Observations for Flinders Island Airport

IDT60801

Issued at 10:02 pm EST Thursday 28 May 2015 (issued every 30 minutes, with the page automatically refreshed every 10 minutes)

About weather observations | Map of weather stations | Latest weather observations for TAS | Other Formats
Station Details ID: 099005 Name: FLINDERS ISLAND AIRPORT Lat: -40.09 Lon: 148.00 Height: 9.0 m
Data from the previous 72 hours. | See also: Recent months at Flinders Island Airport
Date/Time
EST
Temp
°C
App
Temp
°C
Dew
Point
Rel
Hum
%
Delta-T
°C
Wind Press
QNH
hPa
Press
MSL
hPa
Rain
since 9 am
mm
Dir
 
Spd
km/h
Gust
km/h
Spd
kts
Gust
kts
28/10:00pm 12.8 7.1 9.8 82 1.5 W 30 39 16 21 1012.5 1012.5 9.8
28/09:56pm 12.8 7.1 9.8 82 1.5 W 30 39 16 21 1012.5 1012.5 9.8
28/09:39pm 13.0 8.0 10.9 87 1.1 W 28 33 15 18 1012.3 1012.3 9.8
28/09:30pm 12.9 7.9 11.0 88 1.0 WNW 28 35 15 19 1012.4 1012.4 9.8
28/09:02pm 12.8 8.5 11.9 94 0.5 W 26 33 14 18 1012.2 1012.2 9.8
28/09:00pm 12.8 8.5 11.9 94 0.5 W 26 33 14 18 1012.2 1012.2 9.8
28/08:58pm 12.8 8.5 12.0 95 0.4 W 26 35 14 19 1012.2 1012.2 9.8
28/08:48pm 12.9 8.3 12.3 96 0.3 WNW 28 41 15 22 1012.2 1012.2 9.8
28/08:30pm 13.1 8.9 12.5 96 0.3 WNW 26 35 14 19 1012.3 1012.3 7.4
28/08:11pm 12.5 9.5 11.9 96 0.3 NW 19 22 10 12 1012.3 1012.3 6.2
28/08:01pm 12.4 9.1 11.6 95 0.4 NW 20 28 11 15 1012.3 1012.3 6.0
28/08:00pm 12.4 9.1 11.6 95 0.4 NW 20 28 11 15 1012.3 1012.3 6.0
28/07:48pm 12.2 7.6 11.1 93 0.6 WNW 26 37 14 20 1012.3 1012.3 5.6
28/07:33pm 12.2 5.2 10.1 87 1.1 W 37 56 20 30 1012.3 1012.3 3.6
28/07:30pm 13.0 6.5 10.5 85 1.3 WNW 35 56 19 30 1012.4 1012.4 1.6
28/07:05pm 14.4 9.6 11.7 84 1.4 NNW 28 46 15 25 1011.3 1011.3 0.6
28/07:00pm 14.4 10.0 11.6 83 1.5 NW 26 35 14 19 1011.4 1011.4 0.6
28/06:47pm 15.3 10.4 11.3 77 2.1 NW 28 46 15 25 1011.1 1011.1 0.4
28/06:30pm 16.5 12.3 11.0 70 2.9 NNW 24 35 13 19 1010.8 1010.8 0.0
28/06:00pm 16.7 12.7 10.5 67 3.3 NNW 22 35 12 19 1010.9 1010.9 0.0
28/05:30pm 16.8 11.6 10.2 65 3.5 NNW 28 39 15 21 1011.0 1011.0 0.0
28/05:00pm 17.4 12.9 10.1 62 3.9 NNW 24 39 13 21 1010.8 1010.8 0.0
28/04:30pm 17.2 11.9 9.9 62 3.8 NNW 28 39 15 21 1010.9 1010.9 0.0
28/04:00pm 17.1 13.4 10.0 63 3.7 NNW 20 32 11 17 1011.2 1011.2 0.0
28/03:30pm 17.1 13.6 10.2 64 3.7 NNW 19 28 10 15 1011.6 1011.6 0.0
28/03:00pm 17.4 12.9 10.1 62 3.9 NW 24 35 13 19 1011.8 1011.8 0.0
28/02:30pm 17.9 12.6 10.0 60 4.2 NW 28 41 15 22 1012.0 1012.0 0.0
28/02:00pm 17.8 11.6 9.4 58 4.4 NW 32 43 17 23 1012.2 1012.2 0.0
28/01:30pm 18.5 12.2 9.6 56 4.7 NW 33 48 18 26 1012.6 1012.6 0.0
28/01:03pm 18.5 13.2 9.8 57 4.6 NNW 28 46 15 25 1012.8 1012.8 0.0
28/01:00pm 18.5 13.1 9.6 56 4.7 NNW 28 41 15 22 1012.8 1012.8 0.0
28/12:30pm 17.9 12.3 10.3 61 4.1 NNW 30 43 16 23 1013.2 1013.2 0.0
28/12:00pm 18.0 11.9 9.9 59 4.3 NNW 32 50 17 27 1013.8 1013.8 0.0
28/11:51am 18.2 13.0 10.3 60 4.2 NNW 28 50 15 27 1013.9 1013.9 0.0
28/11:30am 17.8 12.6 10.2 61 4.0 NNW 28 44 15 24 1014.3 1014.3 0.0
28/11:00am 17.5 12.6 10.1 62 3.9 NNW 26 35 14 19 1014.7 1014.7 0.0
28/10:30am 17.3 12.8 10.2 63 3.8 NNW 24 35 13 19 1015.1 1015.1 0.0
28/10:00am 17.2 12.7 9.9 62 3.8 NNW 24 35 13 19 1015.2 1015.2 0.0
28/09:30am 17.2 13.5 10.1 63 3.8 NNW 20 37 11 20 1015.4 1015.4 0.0
28/09:00am 16.7 12.7 10.3 66 3.4 NNW 22 30 12 16 1015.7 1015.7 0.0
28/08:30am 16.2 11.8 10.3 68 3.1 NNW 24 35 13 19 1015.8 1015.8 0.0
28/08:00am 15.8 11.6 9.9 68 3.1 NNW 22 32 12 17 1015.7 1015.7 0.0
28/07:30am 15.5 11.7 9.8 69 3.0 NNW 20 33 11 18 1015.6 1015.6 0.0
28/07:00am 15.7 11.6 10.0 69 3.0 NNW 22 30 12 16 1015.6 1015.6 0.0
28/06:30am 15.5 11.8 10.1 70 2.8 NNW 20 33 11 18 1015.5 1015.5 0.0
28/06:00am 15.6 11.4 9.9 69 3.0 NNW 22 33 12 18 1015.3 1015.3 0.0
28/05:30am 15.5 11.8 10.1 70 2.8 NNW 20 30 11 16 1015.3 1015.3 0.0
28/05:00am 15.4 11.6 9.7 69 3.0 NNW 20 32 11 17 1015.5 1015.5 0.0
28/04:30am 15.4 11.6 9.7 69 3.0 NNW 20 30 11 16 1015.6 1015.6 0.0
28/04:00am 15.9 11.3 9.8 67 3.2 NNW 24 35 13 19 1015.7 1015.7 0.0
28/03:30am 16.1 11.5 9.5 65 3.4 NNW 24 37 13 20 1015.9 1015.9 0.0
28/03:00am 15.9 11.3 9.6 66 3.3 NNW 24 35 13 19 1016.0 1016.0 0.0
28/02:30am 16.4 12.5 9.6 64 3.5 NNW 20 33 11 18 1016.2 1016.2 0.0
28/02:00am 16.5 12.2 9.4 63 3.7 NNW 22 35 12 19 1016.3 1016.3 0.0
28/01:30am 16.3 12.1 9.7 65 3.4 NNW 22 32 12 17 1016.4 1016.4 0.0
28/01:00am 16.0 12.2 9.9 67 3.2 NNW 20 32 11 17 1016.5 1016.5 0.0
28/12:30am 15.6 11.8 9.9 69 3.0 NNW 20 28 11 15 1016.6 1016.6 0.0
28/12:00am 15.3 10.9 10.3 72 2.6 NNW 24 35 13 19 1017.0 1017.0 0.0
 
Date/Time
EST
Temp
°C
App
Temp
°C
Dew
Point
Rel
Hum
%
Delta-T
°C
Wind Press
QNH
hPa
Press
MSL
hPa
Rain
since 9 am
mm
Dir
 
Spd
km/h
Gust
km/h
Spd
kts
Gust
kts
27/11:30pm 15.3 11.6 10.3 72 2.6 NNW 20 30 11 16 1017.2 1017.2 0.0
27/11:00pm 15.5 11.8 10.1 70 2.8 NNW 20 30 11 16 1017.2 1017.2 0.0
27/10:30pm 15.3 11.8 10.1 71 2.7 NNW 19 28 10 15 1017.3 1017.3 0.0
27/10:00pm 15.0 12.6 10.0 72 2.6 N 13 22 7 12 1017.4 1017.4 0.0
27/09:30pm 14.7 11.4 9.5 71 2.7 NNW 17 24 9 13 1017.6 1017.6 0.0
27/09:00pm 15.1 12.5 9.5 69 2.9 NNW 13 19 7 10 1017.6 1017.6 0.0
27/08:30pm 15.5 12.2 9.6 68 3.1 NNW 17 30 9 16 1017.8 1017.8 0.0
27/08:00pm 14.2 11.7 9.6 74 2.4 N 13 19 7 10 1017.8 1017.8 0.0
27/07:30pm 14.0 11.4 9.4 74 2.4 N 13 15 7 8 1017.7 1017.7 0.0
27/07:00pm 14.5 11.5 9.1 70 2.7 NNW 15 22 8 12 1017.7 1017.7 0.0
27/06:30pm 14.6 11.9 9.0 69 2.9 N 13 20 7 11 1017.5 1017.5 0.0
27/06:00pm 14.7 11.9 8.6 67 3.1 N 13 17 7 9 1017.3 1017.3 0.0
27/05:30pm 14.7 11.4 8.0 64 3.3 N 15 20 8 11 1017.3 1017.3 0.0
27/05:00pm 14.6 12.6 8.5 67 3.1 N 9 13 5 7 1017.1 1017.1 0.0
27/04:30pm 15.4 13.1 9.1 66 3.2 N 11 19 6 10 1017.3 1017.3 0.0
27/04:00pm 15.4 13.2 9.5 68 3.0 N 11 17 6 9 1017.3 1017.3 0.0
27/03:30pm 15.7 13.2 9.8 68 3.1 NNW 13 17 7 9 1017.4 1017.4 0.0
27/03:00pm 15.8 12.9 9.5 66 3.3 NNW 15 24 8 13 1017.5 1017.5 0.0
27/02:30pm 15.4 13.2 9.3 67 3.1 N 11 17 6 9 1017.6 1017.6 0.0
27/02:00pm 15.0 12.6 8.5 65 3.3 N 11 15 6 8 1017.8 1017.8 0.0
27/01:30pm 15.2 12.3 9.8 70 2.8 NNW 15 22 8 12 1018.2 1018.1 0.0
27/01:00pm 15.7 13.3 10.2 70 2.9 NNW 13 19 7 10 1018.8 1018.8 0.0
27/12:30pm 15.4 13.1 10.4 72 2.6 N 13 19 7 10 1019.3 1019.3 0.0
27/12:00pm 15.4 11.9 10.8 74 2.4 N 20 30 11 16 1019.6 1019.6 0.0
27/11:30am 15.4 11.5 10.8 74 2.4 N 22 32 12 17 1019.9 1019.9 0.0
27/11:00am 15.6 9.9 11.2 75 2.3 NNE 32 37 17 20 1020.3 1020.3 0.0
27/10:30am 14.8 9.3 10.4 75 2.3 NNE 30 37 16 20 1020.5 1020.5 0.0
27/10:00am 13.9 8.8 10.7 81 1.7 NNE 28 35 15 19 1020.6 1020.6 0.0
27/09:30am 13.7 8.2 10.5 81 1.7 NNE 30 37 16 20 1020.8 1020.8 0.0
27/09:00am 13.4 8.5 10.0 80 1.7 NNE 26 32 14 17 1021.0 1021.0 0.0
27/08:30am 12.2 9.3 10.9 92 0.7 NE 17 26 9 14 1021.0 1021.0 0.0
27/08:00am 12.3 10.6 11.2 93 0.6 NNE 11 19 6 10 1021.2 1021.2 0.0
27/07:30am 11.5 8.7 11.2 98 0.2 NE 17 20 9 11 1021.0 1021.0 0.0
27/07:00am 10.6 10.0 10.4 99 0.1 SE 4 7 2 4 1021.1 1021.1 0.0
27/06:30am 7.5 6.9 7.4 99 0.0 CALM 0 7 0 4 1021.3 1021.3 0.0
27/06:00am 8.0 7.5 7.9 99 0.0 CALM 0 2 0 1 1021.5 1021.5 0.0
27/05:30am 8.5 6.8 8.4 99 0.0 ENE 7 11 4 6 1021.4 1021.4 0.0
27/05:00am 7.0 4.6 6.9 99 0.0 ENE 9 11 5 6 1021.8 1021.8 0.0
27/04:58am 7.2 4.8 7.1 99 0.0 ENE 9 11 5 6 1021.8 1021.8 0.0
27/04:39am 6.2 3.6 6.1 99 0.0 ENE 9 11 5 6 1022.0 1022.0 0.0
27/04:30am 6.3 3.7 6.2 99 0.0 ENE 9 11 5 6 1022.1 1022.1 0.0
27/04:10am 6.8 4.7 6.7 99 0.0 ENE 7 11 4 6 1022.2 1022.2 0.0
27/04:00am 7.3 5.5 7.2 99 0.0 ENE 6 11 3 6 1022.3 1022.3 0.0
27/03:30am 7.1 5.6 7.0 99 0.0 NE 4 6 2 3 1022.5 1022.5 0.0
27/03:00am 7.5 4.8 7.4 99 0.0 NE 11 13 6 7 1022.8 1022.8 0.0
27/02:30am 8.3 7.5 8.2 99 0.0 N 2 7 1 4 1023.2 1023.2 0.0
27/02:00am 7.9 7.4 7.8 99 0.0 CALM 0 7 0 4 1023.3 1023.3 0.0
27/01:30am 7.1 5.6 7.0 99 0.0 E 4 11 2 6 1023.4 1023.4 0.0
27/01:00am 6.4 3.8 6.3 99 0.0 ENE 9 11 5 6 1023.7 1023.7 0.0
27/12:30am 6.6 4.5 6.5 99 0.0 ENE 7 13 4 7 1024.0 1024.0 0.0
27/12:00am 6.6 2.9 6.3 98 0.1 NE 15 19 8 10 1024.1 1024.1 0.0
 
Date/Time
EST
Temp
°C
App
Temp
°C
Dew
Point
Rel
Hum
%
Delta-T
°C
Wind Press
QNH
hPa
Press
MSL
hPa
Rain
since 9 am
mm
Dir
 
Spd
km/h
Gust
km/h
Spd
kts
Gust
kts
26/11:30pm 4.9 0.8 4.6 98 0.1 ENE 15 17 8 9 1024.3 1024.3 0.0
26/11:00pm 5.0 1.3 4.7 98 0.1 ENE 13 15 7 8 1024.6 1024.6 0.0
26/10:30pm 5.0 0.9 4.6 97 0.2 ENE 15 15 8 8 1024.7 1024.7 0.0
26/10:00pm 5.9 2.4 5.5 97 0.2 NE 13 13 7 7 1024.8 1024.8 0.0
26/09:30pm 7.5 4.4 7.1 97 0.2 NE 13 15 7 8 1025.1 1025.1 0.0
26/09:00pm 6.2 2.8 5.8 97 0.2 ENE 13 15 7 8 1025.3 1025.3 0.0
26/08:30pm 6.7 3.3 6.1 96 0.3 NE 13 17 7 9 1025.7 1025.7 0.0
26/08:00pm 7.3 4.8 6.7 96 0.3 NE 9 11 5 6 1025.7 1025.7 0.0
26/07:30pm 8.0 5.6 7.2 95 0.4 NNE 9 11 5 6 1025.6 1025.6 0.0
26/07:00pm 8.4 5.7 7.5 94 0.4 NE 11 13 6 7 1025.6 1025.6 0.0
26/06:30pm 8.7 6.8 7.6 93 0.5 NE 7 9 4 5 1025.6 1025.6 0.0
26/06:00pm 9.3 7.1 7.9 91 0.7 ENE 9 13 5 7 1025.5 1025.5 0.0
26/05:30pm 11.9 9.9 10.0 88 1.0 WNW 11 11 6 6 1025.5 1025.5 0.0
26/05:24pm 12.0 10.3 9.9 87 1.1 WNW 9 11 5 6 1025.5 1025.5 0.0
26/05:00pm 12.9 11.7 10.4 85 1.3 WNW 7 11 4 6 1025.5 1025.5 0.0
26/04:37pm 13.3 11.8 10.5 83 1.5 WNW 9 11 5 6 1025.6 1025.6 0.0
26/04:30pm 13.6 12.1 10.6 82 1.6 WNW 9 13 5 7 1025.7 1025.7 0.0
26/04:00pm 14.5 11.9 10.7 78 2.0 W 15 19 8 10 1025.7 1025.7 0.0
26/03:30pm 14.9 12.0 10.9 77 2.1 W 17 22 9 12 1025.7 1025.7 0.0
26/03:00pm 14.9 11.5 10.7 76 2.2 W 19 24 10 13 1025.6 1025.6 0.0
26/02:44pm 15.4 12.0 11.2 76 2.2 W 20 26 11 14 1025.7 1025.7 0.0
26/02:30pm 15.5 12.2 11.5 77 2.2 W 20 26 11 14 1025.8 1025.8 0.0
26/02:28pm 15.3 11.9 11.3 77 2.1 W 20 26 11 14 1025.8 1025.8 0.0
26/02:00pm 15.3 12.0 11.5 78 2.0 W 20 24 11 13 1026.0 1026.0 0.0
26/01:39pm 14.4 10.9 10.8 79 1.9 WSW 20 26 11 14 1026.1 1026.1 0.0
26/01:30pm 14.5 11.2 10.9 79 1.9 WSW 19 22 10 12 1026.3 1026.3 0.0
26/01:00pm 14.9 11.7 11.3 79 1.9 WSW 19 24 10 13 1026.5 1026.5 0.0
26/12:51pm 15.1 11.9 11.3 78 2.0 WSW 19 24 10 13 1026.7 1026.7 0.0
26/12:30pm 15.3 12.0 11.5 78 2.0 W 20 24 11 13 1026.9 1026.9 0.0
26/12:00pm 14.7 11.1 10.7 77 2.1 W 20 24 11 13 1027.2 1027.2 0.0
26/11:30am 14.8 11.3 10.8 77 2.1 W 20 28 11 15 1027.7 1027.7 0.0
26/11:00am 15.3 12.0 11.5 78 2.0 WNW 20 30 11 16 1028.0 1028.0 0.0
26/10:30am 15.0 11.8 11.4 79 1.9 W 19 26 10 14 1028.3 1028.3 0.0
26/10:14am 15.1 11.7 11.3 78 2.0 W 20 26 11 14 1028.3 1028.3 0.0
26/10:00am 14.7 11.9 11.5 81 1.7 W 17 24 9 13 1028.3 1028.3 0.0
26/09:32am 14.5 11.3 11.1 80 1.8 W 19 28 10 15 1028.3 1028.3 0.0
26/09:30am 14.7 11.5 11.3 80 1.8 W 19 24 10 13 1028.2 1028.2 0.0
26/09:00am 14.3 11.2 11.5 83 1.5 W 19 24 10 13 1028.2 1028.2 0.0
26/08:30am 13.3 10.5 11.2 87 1.1 W 17 20 9 11 1028.3 1028.3 0.0
26/08:11am 12.8 9.9 11.0 89 0.9 W 17 19 9 10 1028.3 1028.3 0.0
26/08:00am 12.6 10.1 11.0 90 0.8 W 15 19 8 10 1028.2 1028.2 0.0
26/07:30am 11.7 9.3 9.9 89 0.9 W 13 15 7 8 1028.3 1028.3 0.0
26/07:00am 11.8 9.0 10.0 89 0.9 W 15 19 8 10 1028.0 1028.0 0.0
26/06:30am 12.0 8.8 10.1 88 1.0 W 17 19 9 10 1027.9 1027.9 0.0
26/06:00am 12.2 9.0 10.1 87 1.1 W 17 22 9 12 1027.7 1027.7 0.0
26/05:47am 12.5 9.1 10.4 87 1.1 W 19 26 10 14 1027.8 1027.8 0.0
26/05:30am 12.7 9.7 10.6 87 1.1 W 17 20 9 11 1027.8 1027.8 0.0
26/05:00am 12.8 9.8 10.7 87 1.1 W 17 22 9 12 1027.8 1027.8 0.0
26/04:43am 12.8 9.8 10.7 87 1.1 W 17 22 9 12 1027.8 1027.8 0.0
26/04:30am 12.3 9.2 10.4 88 1.0 W 17 20 9 11 1027.8 1027.8 0.0
26/04:26am 12.5 9.5 10.6 88 1.0 W 17 22 9 12 1027.8 1027.8 0.0
26/04:16am 12.5 9.5 10.6 88 1.0 W 17 24 9 13 1027.8 1027.8 0.0
26/04:00am 11.9 9.1 10.0 88 1.0 W 15 20 8 11 1027.7 1027.7 0.0
26/03:30am 12.1 9.0 10.2 88 1.0 W 17 20 9 11 1027.8 1027.8 0.0
26/03:00am 12.0 8.9 10.2 89 0.9 W 17 22 9 12 1028.0 1028.0 0.0
26/02:30am 11.8 8.6 10.0 89 0.9 WSW 17 22 9 12 1028.2 1028.2 0.0
26/02:09am 12.0 8.9 10.2 89 0.9 W 17 19 9 10 1028.2 1028.2 0.0
26/02:00am 12.0 8.5 10.2 89 0.9 WSW 19 24 10 13 1028.2 1028.2 0.0
26/01:47am 12.0 8.9 10.4 90 0.8 W 17 20 9 11 1028.3 1028.3 0.0
26/01:30am 11.6 9.2 9.9 89 0.9 W 13 17 7 9 1028.2 1028.2 0.0
26/01:00am 11.6 8.7 9.7 88 1.0 W 15 19 8 10 1028.1 1028.1 0.0
26/12:30am 11.7 8.8 9.8 88 1.0 W 15 19 8 10 1028.5 1028.5 0.0
26/12:00am 12.2 9.0 9.9 86 1.2 W 17 20 9 11 1028.7 1028.7 0.0
 
Date/Time
EST
Temp
°C
App
Temp
°C
Dew
Point
Rel
Hum
%
Delta-T
°C
Wind Press
QNH
hPa
Press
MSL
hPa
Rain
since 9 am
mm
Dir
 
Spd
km/h
Gust
km/h
Spd
kts
Gust
kts
25/11:30pm 12.4 9.2 10.0 85 1.2 W 17 20 9 11 1028.9 1028.9 0.0
25/11:00pm 12.6 9.4 10.1 85 1.3 W 17 22 9 12 1028.9 1028.9 0.0
25/10:30pm 12.5 9.3 9.9 84 1.3 W 17 20 9 11 1028.9 1028.9 0.0
25/10:11pm 12.6 9.4 10.0 84 1.3 W 17 22 9 12 1029.1 1029.1 0.0

Other Formats:

Comma delimited format used in spreadsheet applications
http://www.bom.gov.au/fwo/IDT60801/IDT60801.94980.axf

JavaScript Object Notation format (JSON) in row-major order
http://www.bom.gov.au/fwo/IDT60801/IDT60801.94980.json